This is the latest recevied weather packets stored in our database for station/object K9RJT. If no packets are shown the sender has not sent any weather packets the latest 10 day(s).
| Time | Temp. | Humidity | Pressure | Rain* | Wind** | Luminosity | Snow |
|---|---|---|---|---|---|---|---|
| 1777569466 | 14.44° C | 50% | 1016.9 hPa | 0 mm | - | 492 W/m² | - |
| 1777569163 | 15° C | 48% | 1016.9 hPa | 0 mm | - | 497 W/m² | - |
| 1777568859 | 13.89° C | 50% | 1016.9 hPa | 0 mm | - | 484 W/m² | - |
| 1777568557 | 13.33° C | 51% | 1016.9 hPa | 0 mm | - | 455 W/m² | - |
| 1777568253 | 13.89° C | 49% | 1017 hPa | 0 mm | - | 483 W/m² | - |
| 1777567950 | 12.78° C | 52% | 1017.1 hPa | 0 mm | - | 486 W/m² | - |
| 1777567646 | 12.78° C | 52% | 1017.1 hPa | 0 mm | - | 436 W/m² | - |
| 1777567344 | 13.33° C | 51% | 1017.1 hPa | 0 mm | - | 467 W/m² | - |
| 1777567042 | 12.78° C | 52% | 1016.9 hPa | 0 mm | - | 383 W/m² | - |
| 1777566740 | 12.78° C | 53% | 1017.3 hPa | 0 mm | - | 450 W/m² | - |
| 1777566437 | 12.22° C | 55% | 1017.2 hPa | 0 mm | - | 438 W/m² | - |
| 1777566134 | 12.22° C | 55% | 1017.4 hPa | 0 mm | - | 419 W/m² | - |
| 1777565829 | 11.67° C | 54% | 1017.5 hPa | 0 mm | - | 409 W/m² | - |
| 1777565526 | 11.67° C | 54% | 1017.6 hPa | 0 mm | - | 374 W/m² | - |
| 1777565222 | 11.67° C | 55% | 1017.5 hPa | 0 mm | - | 389 W/m² | - |
| 1777564919 | 11.67° C | 54% | 1017.4 hPa | 0 mm | - | 353 W/m² | - |
| 1777564614 | 11.67° C | 56% | 1017.7 hPa | 0 mm | - | 325 W/m² | - |
| 1777564309 | 10.56° C | 58% | 1017.7 hPa | 0 mm | - | 216 W/m² | - |
| 1777564006 | 10° C | 61% | 1017.7 hPa | 0 mm | - | 291 W/m² | - |
| 1777563702 | 9.44° C | 63% | 1017.8 hPa | 0 mm | - | 292 W/m² | - |
| 1777563398 | 9.44° C | 64% | 1017.7 hPa | 0 mm | - | 333 W/m² | - |
| 1777563093 | 8.33° C | 66% | 1017.9 hPa | 0 mm | - | 330 W/m² | - |
| 1777562789 | 8.33° C | 66% | 1018 hPa | 0 mm | - | 313 W/m² | - |
| 1777562487 | 7.78° C | 68% | 1017.9 hPa | 0 mm | - | 284 W/m² | - |
| 1777562184 | 7.78° C | 67% | 1017.9 hPa | 0 mm | - | 230 W/m² | - |
* Rain latest hour (hover to see other rain measurements)
** Current wind speed in m/s (hover to see current wind gust speed)